Terminal Aerodrome Forecast
Issued by NWS

Home | Current Version | Previous Version | Text Only | Print | Product List | Glossary Off
Versions: 1 2 3 4 5 6 7 8 9 10 11 12 13 14 15 16 17 18

000
FTUS43 KABR 011603 AAA
TAFPIR
TAF AMD
KPIR 011603Z 0116/0212 21018G26KT P6SM FEW150
     FM011800 24015KT P6SM BKN250
     FM012100 33013KT P6SM SCT250
     FM020300 VRB06KT P6SM SCT250=

USA.gov is the U.S. government's official web portal to all federal, state and local government web resources and services.